Cadiz, KY

6:08 PM CDT on August 25, 2016 (GMT -0500)
enchanted shores | | Change Station

Elev 404 ft 36.86 °N, 87.94 °W | Updated 2 minutes ago

Clear
Clear
85.5 °F
Feels Like 101 °F
N
1.7
Wind Variable Wind from NE

Today
High -- | Low -- °F
--% Chance of Precip.
Yesterday
High -- | Low -- °F
Precip. -- in
Pressure 30.05 in
Visibility 10.0 miles
Clouds Clear
Heat Index 101 °F
Dew Point 80 °F
Humidity 85%
Rainfall 0.07 in
Snow Depth Not available.
6:17 AM 7:28 PM
Last Quarter, 41% visible
METAR KHOP 252258Z AUTO 21005KT 10SM CLR 31/24 A3006 RMK AO2 SLP175 T03140240
Pressure 30.05 in
Visibility 10.0 miles
Clouds Clear
Heat Index 101 °F
Dew Point 80 °F
Humidity 85%
Rainfall 0.07 in
Snow Depth Not available.
6:17 AM 7:28 PM
Last Quarter, 41% visible
METAR KHOP 252258Z AUTO 21005KT 10SM CLR 31/24 A3006 RMK AO2 SLP175 T03140240
A tropical disturbance pushing toward the Bahamas, is expected to develop into a tropical depression or storm, and will likely target Florida and the Gulf Coast this weekend into next week.

Right now, the disturbance remains a broad area of low pressure pushing through the Dominican Republic and Haiti, headed toward the southeast Bahamas. Rainfall totals over 3 inches (with locally higher amounts) are expected in HispaƱiola, particularly over elevated terrain.

10-Day Weather Forecast

Almanac

Astronomy

Aug. 25, 2016 Rise Set
Actual Time
Civil Twilight
Nautical Twilight
Astronomical Twilight
Moon
Length of Visible Light
Length of Day
Tomorrow will be .
, % of the Moon is Illuminated

Today's Extremes

State Highs State Lows

Community

WunderPhotos

Upload Photos

1,934,956 photos uploaded!

WunderBlog® & News

Nearby

Air Quality

  Air Quality AQ Index Pollutant
Not available.

Snow Depth

Station Depth Elevation

Earthquake Activity

City Distance Mag. Time & Date
Minimum magnitude displayed is 2.5.

Coastal Water Temperatures

Place Temperature

Stations

Nearby Weather Stations

Station Location Temp. Windchill Dew Point Humidity Wind Precip. Elev Updated Type
                   

Watches & Warnings

There are currently no watches in effect.